createdAt,value
2019-02-25T08:19:35.380Z,99.90
2019-02-25T08:22:34.084Z,99.90
2019-02-25T08:25:38.555Z,99.90
2019-02-25T08:28:34.128Z,99.90
2019-02-25T08:31:17.806Z,99.90
2019-02-25T08:34:18.272Z,99.90
2019-02-25T08:37:42.925Z,99.90
2019-02-25T08:41:01.783Z,99.90
2019-02-25T08:43:57.676Z,99.90
2019-02-25T08:46:38.370Z,99.90
2019-02-25T08:49:17.348Z,93.40
2019-02-25T08:51:48.144Z,83.00
2019-02-25T08:54:19.595Z,83.20
2019-02-25T08:56:49.968Z,81.80
2019-02-25T08:59:20.340Z,79.80
2019-02-25T09:01:50.724Z,77.40
2019-02-25T09:04:21.664Z,74.80
2019-02-25T09:06:52.138Z,73.50
2019-02-25T09:09:23.504Z,69.00
2019-02-25T09:11:53.876Z,67.80
2019-02-25T09:14:24.258Z,64.60
2019-02-25T09:16:54.720Z,65.30
2019-02-25T09:19:25.147Z,61.50
2019-02-25T09:21:55.552Z,60.60
2019-02-25T09:24:25.918Z,61.20
2019-02-25T09:26:56.378Z,60.90
2019-02-25T09:29:26.812Z,62.80
2019-02-25T09:31:57.352Z,67.50
2019-02-25T09:34:27.866Z,66.70
2019-02-25T09:36:59.308Z,62.70
2019-02-25T09:39:29.671Z,56.80
2019-02-25T09:42:02.075Z,54.40
2019-02-25T09:44:32.179Z,51.20
2019-02-25T09:47:02.535Z,51.00
2019-02-25T09:49:32.903Z,50.80
2019-02-25T09:52:03.260Z,52.40
2019-02-25T09:54:33.656Z,56.40
2019-02-25T09:57:04.008Z,56.40
2019-02-25T09:59:34.480Z,57.40
2019-02-25T10:02:04.865Z,56.50
2019-02-25T10:04:35.256Z,55.10
2019-02-25T10:07:05.628Z,53.80
2019-02-25T10:09:36.027Z,52.60
2019-02-25T10:12:06.471Z,52.10
2019-02-25T10:14:36.954Z,51.50
2019-02-25T10:17:07.396Z,50.70
2019-02-25T10:19:37.864Z,50.20
2019-02-25T10:22:08.272Z,50.70
2019-02-25T10:24:39.904Z,49.80
2019-02-25T10:27:12.216Z,48.90
2019-02-25T10:29:42.596Z,47.50
2019-02-25T10:32:12.996Z,48.00
2019-02-25T10:34:43.352Z,47.90
2019-02-25T10:37:15.577Z,48.70
2019-02-25T10:39:47.459Z,49.90
2019-02-25T10:42:17.855Z,51.70
2019-02-25T10:44:48.212Z,54.60
2019-02-25T10:47:19.898Z,54.00
2019-02-25T10:49:50.752Z,50.10
2019-02-25T10:52:21.216Z,47.00
2019-02-25T10:54:54.006Z,46.00
2019-02-25T10:57:27.126Z,46.30
2019-02-25T10:59:57.200Z,48.70
2019-02-25T11:02:27.591Z,51.70
2019-02-25T11:04:57.964Z,53.20
2019-02-25T11:07:28.764Z,54.10
2019-02-25T11:10:18.674Z,55.70
2019-02-25T11:12:49.537Z,57.10
2019-02-25T11:15:20.037Z,55.40
2019-02-25T11:17:51.815Z,54.70
2019-02-25T11:20:22.663Z,51.60
2019-02-25T11:22:53.284Z,47.70
2019-02-25T11:25:25.735Z,45.70
2019-02-25T11:27:56.003Z,45.90
2019-02-25T11:30:27.073Z,45.30
2019-02-25T11:32:59.975Z,43.50
2019-02-25T11:35:31.176Z,43.20
2019-02-25T11:38:02.201Z,43.40
2019-02-25T11:40:34.133Z,42.70
2019-02-25T11:43:04.900Z,41.00
2019-02-25T11:45:36.400Z,41.80
2019-02-25T11:48:07.542Z,41.20
2019-02-25T11:50:38.764Z,36.80
2019-02-25T11:53:09.789Z,33.70
2019-02-25T11:55:41.250Z,31.70
2019-02-25T11:58:12.317Z,34.60
2019-02-25T12:00:43.400Z,34.30
2019-02-25T12:03:13.848Z,34.20
2019-02-25T12:05:44.817Z,34.90
2019-02-25T12:08:16.057Z,36.00
2019-02-25T12:10:47.100Z,36.60
2019-02-25T12:13:18.200Z,35.40
2019-02-25T12:15:49.572Z,34.70
2019-02-25T12:18:21.365Z,35.30
2019-02-25T12:20:51.779Z,34.40
2019-02-25T12:23:22.163Z,34.50
2019-02-25T12:25:52.556Z,36.60
2019-02-25T12:28:23.531Z,39.70
2019-02-25T12:30:54.013Z,41.30
2019-02-25T12:33:25.010Z,41.20
2019-02-25T12:35:55.897Z,40.50
2019-02-25T12:38:26.712Z,41.60
2019-02-25T12:40:57.177Z,43.30
2019-02-25T12:43:27.568Z,44.70
2019-02-25T12:45:58.064Z,48.70
2019-02-25T12:48:28.448Z,51.20
2019-02-25T12:50:59.688Z,51.70
2019-02-25T12:53:30.244Z,54.00
2019-02-25T12:56:00.640Z,57.50
2019-02-25T12:58:31.124Z,58.70
2019-02-25T13:01:01.636Z,59.70
2019-02-25T13:03:32.184Z,58.80
2019-02-25T13:06:02.560Z,57.40
2019-02-25T13:08:33.348Z,60.00
2019-02-25T13:11:03.845Z,58.40
2019-02-25T13:13:34.293Z,61.30
2019-02-25T13:16:05.080Z,59.60
2019-02-25T13:18:35.768Z,60.20
2019-02-25T13:21:06.185Z,61.30
2019-02-25T13:23:36.652Z,62.00
2019-02-25T13:26:07.569Z,63.00
2019-02-25T13:28:38.383Z,61.60
2019-02-25T13:31:10.216Z,61.20
2019-02-25T13:33:40.917Z,64.10
2019-02-25T13:36:12.976Z,63.30
2019-02-25T13:38:43.596Z,67.20
2019-02-25T13:41:14.148Z,62.40
2019-02-25T13:43:44.596Z,60.70
2019-02-25T13:46:15.925Z,62.00
2019-02-25T13:51:17.195Z,62.00
2019-02-25T13:53:48.086Z,62.30
2019-02-25T13:56:18.541Z,59.30
2019-02-25T13:58:48.976Z,59.30
2019-02-25T14:01:19.560Z,57.80
2019-02-25T14:03:50.578Z,58.10
2019-02-25T14:06:21.099Z,56.70
2019-02-25T14:08:51.571Z,56.60
2019-02-25T14:11:22.020Z,57.60
2019-02-25T14:13:52.517Z,55.80
2019-02-25T14:16:23.860Z,54.60
2019-02-25T14:18:54.316Z,52.60
2019-02-25T14:21:24.812Z,52.80
2019-02-25T14:23:57.662Z,54.60
2019-02-25T14:26:27.333Z,52.20
2019-02-25T14:28:57.824Z,52.70
2019-02-25T14:31:29.963Z,51.90
2019-02-25T14:34:00.626Z,52.50
2019-02-25T14:36:31.137Z,51.20
2019-02-25T14:39:04.283Z,50.20
2019-02-25T14:41:35.446Z,49.90
2019-02-25T14:44:06.285Z,51.40
2019-02-25T14:46:36.820Z,52.60
2019-02-25T14:49:08.179Z,52.90
2019-02-25T14:51:38.788Z,52.40
2019-02-25T14:54:09.300Z,52.20
2019-02-25T14:56:42.929Z,52.40
2019-02-25T14:59:15.135Z,52.80
2019-02-25T15:01:45.444Z,53.40
2019-02-25T15:04:15.955Z,50.80
2019-02-25T15:06:46.451Z,50.70
2019-02-25T15:09:18.082Z,50.90
2019-02-25T15:11:51.166Z,51.80
2019-02-25T15:14:22.236Z,53.20
2019-02-25T15:16:53.040Z,51.30
2019-02-25T15:19:24.596Z,50.00
2019-02-25T15:21:56.388Z,45.80
2019-02-25T15:24:27.611Z,45.80
2019-02-25T15:26:59.861Z,46.60
2019-02-25T15:29:32.113Z,47.40
2019-02-25T15:32:04.701Z,50.10
2019-02-25T15:34:37.490Z,51.50
2019-02-25T15:37:09.412Z,53.80
2019-02-25T15:39:42.404Z,57.40
2019-02-25T15:42:14.003Z,57.20
2019-02-25T15:44:47.194Z,58.50
2019-02-25T15:47:17.064Z,57.70
2019-02-25T15:52:18.806Z,61.00
2019-02-25T15:54:50.394Z,62.50
2019-02-25T15:57:22.584Z,59.50
2019-02-25T15:59:54.460Z,63.00
2019-02-25T16:02:25.485Z,64.40
2019-02-25T17:20:10.205Z,99.90
2019-02-25T17:22:39.660Z,99.90
2019-02-25T17:47:02.145Z,99.90
2019-02-25T17:52:05.039Z,99.90
2019-02-25T17:54:37.635Z,99.90
2019-02-25T17:57:09.751Z,99.90
2019-02-25T20:52:26.681Z,99.90
2019-02-25T20:54:57.367Z,99.90
2019-02-25T20:57:29.525Z,99.90
2019-02-25T21:12:20.256Z,99.90
2019-02-25T21:14:52.084Z,99.90
2019-02-25T21:17:22.737Z,99.90
2019-02-25T21:19:53.223Z,99.90
2019-02-25T21:22:27.135Z,99.90
2019-02-25T21:24:57.987Z,99.90
2019-02-25T21:36:45.395Z,99.90
2019-02-25T21:39:19.136Z,99.90
2019-02-25T21:45:22.334Z,99.90
2019-02-25T22:09:08.172Z,99.90
2019-02-25T22:11:40.336Z,99.90
2019-02-25T22:14:14.121Z,99.90
2019-02-25T22:16:44.587Z,99.90
2019-02-25T22:19:16.485Z,99.90
2019-02-25T22:21:57.971Z,99.90
2019-02-25T22:24:29.104Z,99.90
2019-02-25T22:27:00.053Z,99.90
2019-02-25T22:29:38.540Z,99.90
2019-02-25T22:32:10.838Z,99.90
2019-02-25T22:34:45.343Z,99.90
2019-02-25T22:46:11.689Z,99.90
2019-02-25T22:51:51.933Z,99.90
2019-02-25T22:54:25.570Z,99.90
2019-02-25T22:56:57.950Z,99.90
2019-02-25T23:04:32.526Z,99.90
2019-02-25T23:07:03.899Z,99.90
2019-02-25T23:09:34.692Z,99.90
